Rodney, Canada
Current Conditions -  °F | °C
As of 4:00 PM on Friday 24 Oct 2014 (Local Time) from CYCK Reporting Station
Clear Clear  
Wind Chill: 61°   Ceiling: Unl
Heat Index: 61°   Visibility: 9mi
Dew Point: 45°   Wind: 12mph
Humidity: 55%   Direction: 220°SW
Pressure: 29.98"   Gusts: 17mph
Location:  42.57°N, 81.68°W
Report Text: CYCK 242000Z AUTO 22010G15KT 9SM CLR 16/07 A2998 RMK SLP157 DENSITY ALT 800FT
Loading
Personal Weather Stations






























Interactive Weather Map
Tropical Storm Tracking
New forecast layout! Learn more

10-Day Weather Forecast

Advertisements
Track Severe Weather on mobile